WetterOnline ( https://www.wetteronline.de )

Wetter aktuell Großheubach

Aktuelles Wetter: Michelstadt-Vielbrunn (455m)

6-stündlich | Neueste Meldungen
Ortszeit Temperatur Wetter
Fr, 05.06. 8:00 9.0° C wolkig
Fr, 05.06. 2:00 9.7° C bedeckt
Do, 04.06. 20:00 12.8° C wolkig
Do, 04.06. 14:00 14.6° C bedeckt
Do, 04.06. 8:00 13.3° C leichter Regen
Do, 04.06. 2:00 14.6° C bewölkt
Mi, 03.06. 20:00 17.4° C wolkig
Mi, 03.06. 14:00 22.4° C wolkig
Ortszeit Temperatur Wetter
Fr, 05.06. 11:30 11.8° C wolkig
Fr, 05.06. 11:20 11.8° C wolkig
Fr, 05.06. 11:10 11.9° C wolkig
Fr, 05.06. 11:00 10.9° C wolkig
Fr, 05.06. 10:50 10.9° C wolkig
Fr, 05.06. 10:40 10.9° C wolkig
Fr, 05.06. 10:30 10.0° C bewölkt
Fr, 05.06. 10:00 9.6° C bedeckt
Ortszeit Relative Feuchte Sichtweite
Fr, 05.06. 8:00 93% 30 km
Fr, 05.06. 2:00 99% 7 km
Do, 04.06. 20:00 94% 8 km
Do, 04.06. 14:00 92% 18 km
Do, 04.06. 8:00 97% 14 km
Do, 04.06. 2:00 74% 50 km
Mi, 03.06. 20:00 69% 65 km
Mi, 03.06. 14:00 51% 60 km
Ortszeit Relative Feuchte Sichtweite
Fr, 05.06. 11:30 66% 55 km
Fr, 05.06. 11:20 66% -
Fr, 05.06. 11:10 66% -
Fr, 05.06. 11:00 70% 60 km
Fr, 05.06. 10:50 70% -
Fr, 05.06. 10:40 77% -
Fr, 05.06. 10:30 80% 45 km
Fr, 05.06. 10:00 83% 45 km
Ortszeit Niederschlagsmenge Niederschlagsart
Fr, 05.06. 8:00 7 l/m2 in 12 Std. -
Fr, 05.06. 2:00 7 l/m2 in 6 Std. Regen
Do, 04.06. 20:00 4 l/m2 in 12 Std. Regen
Do, 04.06. 14:00 0.8 l/m2 in 6 Std. Regen
Do, 04.06. 8:00 0.8 l/m2 in 12 Std. Regen
Do, 04.06. 2:00 0.1 l/m2 in 6 Std. Regen
Mi, 03.06. 20:00 0.3 l/m2 in 12 Std. Regen
Mi, 03.06. 14:00 0.0 l/m2 in 6 Std. -
Ortszeit Niederschlagsmenge Niederschlagsart
Fr, 05.06. 11:30 0.0 l/m2 in 1 Std. -
Fr, 05.06. 11:20 keine Meldung -
Fr, 05.06. 11:10 keine Meldung -
Fr, 05.06. 11:00 0.0 l/m2 in 1 Std. -
Fr, 05.06. 10:50 keine Meldung -
Fr, 05.06. 10:40 keine Meldung -
Fr, 05.06. 10:30 0.0 l/m2 in 1 Std. -
Fr, 05.06. 10:00 0.0 l/m2 in 1 Std. -
Ortszeit Stärke Spitze Richtung
km/h Bft. km/h Grad Sektor
Fr, 05.06. 8:00 11 2 25 260° W
Fr, 05.06. 2:00 11 2 32 260° W
Do, 04.06. 20:00 7 2 25 280° W
Do, 04.06. 14:00 13 3 28 240° SW
Do, 04.06. 8:00 15 3 26 220° SW
Do, 04.06. 2:00 13 3 20 150° SO
Mi, 03.06. 20:00 7 2 47 210° SW
Mi, 03.06. 14:00 7 2 40 120° SO
Ortszeit Stärke Spitze Richtung
km/h Bft. km/h Grad Sektor
Fr, 05.06. 11:30 14 3 29 220° SW
Fr, 05.06. 11:20 14 3 - 220° SW
Fr, 05.06. 11:10 14 3 - 220° SW
Fr, 05.06. 11:00 14 3 25 200° S
Fr, 05.06. 10:50 14 3 - 200° S
Fr, 05.06. 10:40 13 3 - 220° SW
Fr, 05.06. 10:30 11 2 19 210° SW
Fr, 05.06. 10:00 7 2 18 240° SW
Ortszeit Untergrenze Bedeckung Gattung
total tief tief mittel hoch
Fr, 05.06. 8:00 2700 m 8/8 1/8 - - -
Fr, 05.06. 2:00 270 m 8/8 8/8 - - -
Do, 04.06. 20:00 510 m 8/8 3/8 - - -
Do, 04.06. 14:00 360 m 8/8 8/8 - - -
Do, 04.06. 8:00 1500 m 8/8 8/8 - - -
Do, 04.06. 2:00 5700 m 8/8 7/8 - - -
Mi, 03.06. 20:00 2100 m 7/8 4/8 - - -
Mi, 03.06. 14:00 1800 m 5/8 5/8 - - -
Ortszeit Bedeckungsgrad in Achtel und Wolkenuntergrenze
Fr, 05.06. 11:30 1(1230m) 8(4200m) 8(4800m)
Fr, 05.06. 11:20 1(1230m) 8(4200m) 8(4800m)
Fr, 05.06. 11:10 1(1350m) 7(3600m) 7(4500m)
Fr, 05.06. 11:00 2(2700m) 7(3300m) 7(4500m)
Fr, 05.06. 10:50 2(2700m) 7(3300m) 7(4500m)
Fr, 05.06. 10:40 1(510m) 4(2700m) 7(3300m)
Fr, 05.06. 10:30 5(450m) 5(2700m) 8(3300m)
Fr, 05.06. 10:00 3(480m) 8(2700m) 8(3300m)
Ortszeit Luftdruck NN (hPa) Tendenz (hPa in 3 Std.)
Fr, 05.06. 8:00 1000 + 1,4
Fr, 05.06. 2:00 998 + 1,0
Do, 04.06. 20:00 995 - 0,2
Do, 04.06. 14:00 995 - 0,6
Do, 04.06. 8:00 997 - 0,8
Do, 04.06. 2:00 1000 - 1,7
Mi, 03.06. 20:00 1002 0,0
Mi, 03.06. 14:00 1003 - 1,9
Ortszeit Luftdruck NN (hPa) Tendenz (hPa in 3 Std.)
Fr, 05.06. 11:30 999 - 0,3
Fr, 05.06. 11:20 999 keine Meldung
Fr, 05.06. 11:10 999 keine Meldung
Fr, 05.06. 11:00 999 - 0,2
Fr, 05.06. 10:50 999 keine Meldung
Fr, 05.06. 10:40 1000 keine Meldung
Fr, 05.06. 10:30 1000 + 0,5
Fr, 05.06. 10:00 1000 + 0,7
Ortszeit Schneehöhe (cm)
Fr, 05.06. 8:00 -
Fr, 05.06. 2:00 -
Do, 04.06. 20:00 -
Do, 04.06. 14:00 -
Do, 04.06. 8:00 -
Do, 04.06. 2:00 -
Mi, 03.06. 20:00 -
Mi, 03.06. 14:00 -
Ortszeit Schneehöhe (cm)
Fr, 05.06. 11:30 -
Fr, 05.06. 11:20 -
Fr, 05.06. 11:10 -
Fr, 05.06. 11:00 -
Fr, 05.06. 10:50 -
Fr, 05.06. 10:40 -
Fr, 05.06. 10:30 -
Fr, 05.06. 10:00 -
Link zu dieser Seite / Seite empfehlen

Das Wetter in ...